Anchorage, AK (99516)

7:19 AM AKST on February 14, 2016 (GMT -0900)
Alpine Woods | | Change Station
CLOSE
Current Station
Personal Weather Station
Location: Anchorage, AK
Elevation: 770 ft
Nearby Weather Stations

Elev 770 ft 61.11 °N, 149.77 °W | Updated 8 minutes ago

Partly Cloudy
Partly Cloudy
27.5 °F
Feels Like 28 °F
N
0.0
Wind Variable Wind from SSE

Today
High -- | Low -- °F
--% Chance of Precip.
Yesterday
High -- | Low -- °F
Precip. -- in
Pressure 29.31 in
Visibility 10.0 miles
Clouds Few 7000 ft
Windchill 28 °F
Dew Point 24 °F
Humidity 88%
Rainfall 0.00 in
Snow Depth Not available.
8:44 AM 5:42 PM
Waxing Crescent, 43% visible
METAR PAMR 141553Z 09003KT 10SM FEW070 M02/M06 A2931 RMK AO2 SLP926 T10171056
Pressure 29.31 in
Visibility 10.0 miles
Clouds Few 7000 ft
Windchill 28 °F
Dew Point 24 °F
Humidity 88%
Rainfall 0.00 in
Snow Depth Not available.
8:44 AM 5:42 PM
Waxing Crescent, 43% visible
METAR PAMR 141553Z 09003KT 10SM FEW070 M02/M06 A2931 RMK AO2 SLP926 T10171056

10-Day Weather Forecast

Almanac

Astronomy

Feb. 14, 2016 Rise Set
Actual Time
Civil Twilight
Nautical Twilight
Astronomical Twilight
Moon
Length of Visible Light
Length of Day
Tomorrow will be .
, % of the Moon is Illuminated

Today's Extremes

State Highs State Lows

Community

WunderPhotos

Upload Photos

1,892,828 photos uploaded!

WunderBlog® & News

Nearby

Air Quality

  Air Quality AQ Index Pollutant
Not available.

Snow Depth

Station Depth Elevation

Earthquake Activity

City Distance Mag. Time & Date
Minimum magnitude displayed is 2.5.

Coastal Water Temperatures

Place Temperature

Stations

Nearby Weather Stations

Station Location Temp. Windchill Dew Point Humidity Wind Precip. Elev Updated Type
                   

Watches & Warnings

There are currently no watches in effect.